Time;durP1;ratioP1;P1;durP2;ratioP2;P2;SDS_P1;SDS_P2;PMS_P1;PMS_P2;Temp;Humidity;BMP_temperature;BMP_pressure;BME280_temperature;BME280_humidity;BME280_pressure;Samples;Min_cycle;Max_cycle;Signal;HPM_P1;HPM_P2
2023/02/22 00:01:46;;;;;;;56.72;28.67;;;8.60;99.90;;;;;;7381475;19;20519;-65
2023/02/22 00:04:12;;;;;;;61.22;30.55;;;8.60;99.90;;;;;;7377071;19;20018;-64
2023/02/22 00:06:41;;;;;;;63.63;28.58;;;8.60;99.90;;;;;;7377309;19;20014;-65
2023/02/22 00:09:09;;;;;;;62.95;28.90;;;8.60;99.90;;;;;;7376824;19;20015;-65
2023/02/22 00:11:35;;;;;;;57.95;27.83;;;8.60;99.90;;;;;;7380025;19;20022;-64
2023/02/22 00:14:04;;;;;;;64.28;31.23;;;8.60;99.90;;;;;;7374219;19;20392;-64
2023/02/22 00:16:30;;;;;;;62.13;29.98;;;8.50;99.90;;;;;;7377255;19;20097;-64
2023/02/22 00:18:57;;;;;;;55.40;28.90;;;8.50;99.90;;;;;;7378810;19;20053;-64
2023/02/22 00:21:24;;;;;;;59.60;29.85;;;8.60;99.90;;;;;;7379232;19;20052;-64
2023/02/22 00:23:53;;;;;;;58.35;28.38;;;8.60;99.90;;;;;;7376881;19;20588;-65
2023/02/22 00:26:22;;;;;;;59.25;29.15;;;8.50;99.90;;;;;;7377677;19;20022;-64
2023/02/22 00:28:51;;;;;;;60.03;29.85;;;8.50;99.90;;;;;;7377617;19;20027;-64
2023/02/22 00:31:18;;;;;;;60.42;29.25;;;8.50;99.90;;;;;;7376327;19;20018;-64
2023/02/22 00:33:44;;;;;;;60.67;28.02;;;8.50;99.90;;;;;;7374625;19;20019;-65
2023/02/22 00:36:12;;;;;;;61.60;30.08;;;8.50;99.90;;;;;;7376215;19;20461;-65
2023/02/22 00:38:40;;;;;;;58.05;29.83;;;8.50;99.90;;;;;;7380886;19;20027;-65
2023/02/22 00:41:06;;;;;;;61.00;30.15;;;8.50;99.90;;;;;;7376016;19;20082;-64
2023/02/22 00:43:41;;;;;;;56.78;30.42;;;8.50;99.90;;;;;;7376848;19;20010;-64
2023/02/22 00:46:08;;;;;;;57.97;29.23;;;8.50;99.90;;;;;;7378494;19;20014;-64
2023/02/22 00:48:34;;;;;;;58.17;28.58;;;8.50;99.90;;;;;;7378110;19;20029;-64
2023/02/22 00:51:00;;;;;;;66.93;31.33;;;8.50;99.90;;;;;;7377678;19;20784;-65
2023/02/22 00:53:28;;;;;;;60.95;28.98;;;8.40;99.90;;;;;;7374512;19;20028;-65
2023/02/22 00:55:55;;;;;;;67.82;31.90;;;8.50;99.90;;;;;;7378145;19;20049;-64
2023/02/22 00:58:23;;;;;;;66.70;30.95;;;8.50;99.90;;;;;;7373823;19;20018;-64
2023/02/22 01:00:49;;;;;;;64.47;30.25;;;8.50;99.90;;;;;;7378944;19;20024;-64
2023/02/22 01:03:19;;;;;;;63.15;29.58;;;8.50;99.90;;;;;;7375026;19;20023;-64
2023/02/22 01:05:54;;;;;;;61.70;30.63;;;8.50;99.90;;;;;;7377523;19;20014;-64
2023/02/22 01:08:20;;;;;;;63.00;31.08;;;8.50;99.90;;;;;;7372910;19;20010;-65
2023/02/22 01:10:51;;;;;;;71.03;32.75;;;8.40;99.90;;;;;;7377393;19;20015;-64
2023/02/22 01:13:18;;;;;;;69.72;34.95;;;8.40;99.90;;;;;;7372153;19;20070;-64
2023/02/22 01:15:51;;;;;;;69.93;33.95;;;8.50;99.90;;;;;;7373376;19;20485;-64
2023/02/22 01:18:17;;;;;;;67.05;33.67;;;8.40;99.90;;;;;;7375569;19;20022;-64
2023/02/22 01:20:46;;;;;;;67.55;33.47;;;8.40;99.90;;;;;;7371761;19;20014;-65
2023/02/22 01:23:34;;;;;;;66.85;33.72;;;8.40;99.90;;;;;;7371102;19;20470;-65
2023/02/22 01:26:03;;;;;;;67.85;35.30;;;8.40;99.90;;;;;;7375152;19;20025;-65
2023/02/22 01:28:29;;;;;;;71.50;36.72;;;8.40;99.90;;;;;;7376320;19;20018;-66
2023/02/22 01:30:55;;;;;;;65.97;34.58;;;8.40;99.90;;;;;;7376490;19;20130;-65
2023/02/22 01:33:24;;;;;;;64.97;33.65;;;8.40;99.90;;;;;;7375588;19;20023;-65
2023/02/22 01:35:52;;;;;;;72.70;34.58;;;8.40;99.90;;;;;;7371234;19;20480;-65
2023/02/22 01:38:18;;;;;;;67.10;35.25;;;8.40;99.90;;;;;;7375473;19;20787;-65
2023/02/22 01:40:49;;;;;;;60.85;32.47;;;8.40;99.90;;;;;;7374286;19;20495;-64
2023/02/22 01:43:20;;;;;;;68.28;35.38;;;8.40;99.90;;;;;;7372999;19;20026;-65
2023/02/22 01:46:02;;;;;;;65.70;34.80;;;8.40;99.90;;;;;;7376331;19;20482;-67
2023/02/22 01:48:40;;;;;;;;;;;8.40;99.90;;;;;;7378125;19;20011;-65
2023/02/22 01:51:12;;;;;;;74.63;34.58;;;8.40;99.90;;;;;;7375691;19;19969;-65
2023/02/22 01:54:00;;;;;;;66.40;33.30;;;8.40;99.90;;;;;;7379599;19;20856;-64
2023/02/22 01:56:29;;;;;;;73.93;34.50;;;8.40;99.90;;;;;;7375539;19;20014;-65
2023/02/22 01:59:05;;;;;;;73.25;33.80;;;8.40;99.90;;;;;;7376817;19;20834;-64
2023/02/22 02:01:32;;;;;;;73.47;34.92;;;8.40;99.90;;;;;;7371839;19;20477;-65
2023/02/22 02:04:06;;;;;;;77.88;35.45;;;8.40;99.90;;;;;;7372938;19;20029;-64
2023/02/22 02:06:34;;;;;;;71.15;34.53;;;8.40;99.90;;;;;;7376643;19;20019;-64
2023/02/22 02:09:12;;;;;;;79.65;34.55;;;8.30;99.90;;;;;;7374462;19;20022;-65
2023/02/22 02:11:40;;;;;;;69.55;34.15;;;8.40;99.90;;;;;;7374384;19;20045;-65
2023/02/22 02:14:08;;;;;;;65.70;32.20;;;8.40;99.90;;;;;;7373285;19;20105;-64
2023/02/22 02:17:02;;;;;;;69.28;34.00;;;8.40;99.90;;;;;;7372545;19;20019;-64
2023/02/22 02:19:35;;;;;;;68.25;34.70;;;8.40;99.90;;;;;;7374670;19;20512;-64
2023/02/22 02:22:18;;;;;;;74.30;33.33;;;8.30;99.90;;;;;;7373918;19;20014;-65
2023/02/22 02:25:10;;;;;;;75.43;34.50;;;8.30;99.90;;;;;;7371744;19;20029;-65
2023/02/22 02:28:02;;;;;;;65.95;33.50;;;8.40;99.90;;;;;;7372418;19;20022;-64
2023/02/22 02:30:38;;;;;;;74.75;34.25;;;8.40;99.90;;;;;;7372788;19;20101;-64
2023/02/22 02:33:07;;;;;;;71.13;32.40;;;8.30;99.90;;;;;;7370866;19;20045;-65
2023/02/22 02:35:40;;;;;;;74.03;32.97;;;8.40;99.90;;;;;;7373889;19;20037;-65
2023/02/22 02:38:20;;;;;;;70.03;34.08;;;8.30;99.90;;;;;;7367628;19;20014;-65
2023/02/22 02:40:57;;;;;;;71.65;32.60;;;8.30;99.90;;;;;;7372329;19;20026;-65
2023/02/22 02:43:42;;;;;;;69.35;32.95;;;8.30;99.90;;;;;;7372102;19;20018;-64
2023/02/22 02:46:20;;;;;;;65.32;32.30;;;8.30;99.90;;;;;;7374135;19;20371;-64
2023/02/22 02:48:57;;;;;;;63.30;32.85;;;8.30;99.90;;;;;;7374224;19;20386;-64
2023/02/22 02:51:33;;;;;;;70.65;33.55;;;8.30;99.90;;;;;;7376450;19;20082;-64
2023/02/22 02:54:01;;;;;;;73.30;33.40;;;8.30;99.90;;;;;;7367331;19;20794;-64
2023/02/22 02:56:28;;;;;;;67.20;32.70;;;8.30;99.90;;;;;;7373882;19;20015;-64
2023/02/22 02:58:54;;;;;;;71.30;33.55;;;8.30;99.90;;;;;;7373237;19;20024;-64
2023/02/22 03:01:41;;;;;;;72.18;33.47;;;8.30;99.90;;;;;;7372971;19;20363;-64
2023/02/22 03:04:29;;;;;;;69.25;32.58;;;8.30;99.90;;;;;;7372046;19;20022;-64
2023/02/22 03:07:06;;;;;;;69.00;31.77;;;8.30;99.90;;;;;;7372148;19;20014;-65
2023/02/22 03:09:57;;;;;;;68.80;32.13;;;8.30;99.90;;;;;;7374491;19;20026;-64
2023/02/22 03:12:46;;;;;;;75.15;33.08;;;8.30;99.90;;;;;;7373301;19;20014;-64
2023/02/22 03:15:22;;;;;;;66.20;32.80;;;8.30;99.90;;;;;;7372156;19;20018;-64
2023/02/22 03:18:01;;;;;;;72.47;33.55;;;8.30;99.90;;;;;;7373032;19;20011;-65
2023/02/22 03:20:44;;;;;;;75.90;34.58;;;8.20;99.90;;;;;;7372364;19;20022;-64
2023/02/22 03:23:26;;;;;;;74.15;34.10;;;8.20;99.90;;;;;;7370997;19;20817;-65
2023/02/22 03:26:01;;;;;;;74.50;34.50;;;8.20;99.90;;;;;;7372604;19;20039;-64
2023/02/22 03:28:31;;;;;;;79.07;34.67;;;8.20;99.90;;;;;;7373205;19;20022;-64
2023/02/22 03:31:14;;;;;;;77.07;34.60;;;8.20;99.90;;;;;;7370929;19;20026;-65
2023/02/22 03:34:00;;;;;;;80.97;36.38;;;8.20;99.90;;;;;;7368988;19;20028;-65
2023/02/22 03:36:37;;;;;;;78.47;37.22;;;8.20;99.90;;;;;;7370990;19;20025;-64
2023/02/22 03:39:09;;;;;;;80.43;36.38;;;8.10;99.90;;;;;;7371689;19;20380;-65
2023/02/22 03:41:40;;;;;;;77.75;36.08;;;8.10;99.90;;;;;;7371438;19;20038;-65
2023/02/22 03:44:16;;;;;;;77.95;35.88;;;8.10;99.90;;;;;;7367154;19;20023;-64
2023/02/22 03:46:46;;;;;;;71.35;34.83;;;8.10;99.90;;;;;;7371849;19;20019;-65
2023/02/22 03:49:28;;;;;;;75.28;34.55;;;8.10;99.90;;;;;;7366724;19;20624;-64
2023/02/22 03:51:56;;;;;;;69.40;33.42;;;8.10;99.90;;;;;;7371014;19;20015;-65
2023/02/22 03:54:23;;;;;;;70.88;35.67;;;8.10;99.90;;;;;;7370493;19;20045;-64
2023/02/22 03:56:54;;;;;;;67.80;35.95;;;8.10;99.90;;;;;;7372295;19;20761;-64
2023/02/22 03:59:26;;;;;;;72.47;34.60;;;8.10;99.90;;;;;;7369202;19;20022;-65
2023/02/22 04:01:54;;;;;;;77.55;34.85;;;8.10;99.90;;;;;;7369371;19;20023;-65
2023/02/22 04:04:20;;;;;;;70.93;35.95;;;8.10;99.90;;;;;;7374662;19;20485;-64
2023/02/22 04:06:51;;;;;;;74.65;36.88;;;8.10;99.90;;;;;;7380193;19;20022;-64
2023/02/22 04:09:19;;;;;;;69.63;37.67;;;8.10;99.90;;;;;;7377185;19;20090;-65
2023/02/22 04:11:45;;;;;;;65.88;36.78;;;8.10;99.90;;;;;;7376152;19;20018;-65
2023/02/22 04:14:12;;;;;;;70.00;37.65;;;8.00;99.90;;;;;;7378481;19;20053;-64
2023/02/22 04:16:40;;;;;;;66.75;38.10;;;8.00;99.90;;;;;;7378487;19;20023;-64
2023/02/22 04:19:09;;;;;;;63.72;36.83;;;8.00;99.90;;;;;;7377975;19;20029;-65
2023/02/22 04:21:44;;;;;;;69.55;38.55;;;8.00;99.90;;;;;;7377591;19;20033;-65
2023/02/22 04:24:34;;;;;;;68.03;37.88;;;8.00;99.90;;;;;;7378934;19;20049;-65
2023/02/22 04:27:00;;;;;;;71.00;38.80;;;8.00;99.90;;;;;;7376164;19;20026;-65
2023/02/22 04:29:26;;;;;;;65.45;38.30;;;8.00;99.90;;;;;;7378500;19;20018;-65
2023/02/22 04:31:53;;;;;;;67.32;38.50;;;8.00;99.90;;;;;;7375013;19;20985;-65
2023/02/22 04:34:19;;;;;;;69.07;37.67;;;8.00;99.90;;;;;;7375775;19;20069;-65
2023/02/22 04:36:46;;;;;;;67.78;39.13;;;8.00;99.90;;;;;;7377815;19;20042;-65
2023/02/22 04:39:14;;;;;;;71.20;40.28;;;7.90;99.90;;;;;;7379036;19;20022;-65
2023/02/22 04:41:41;;;;;;;67.05;38.05;;;7.90;99.90;;;;;;7374090;19;20619;-65
2023/02/22 04:44:08;;;;;;;79.68;40.88;;;7.90;99.90;;;;;;7376187;19;20035;-64
2023/02/22 04:46:34;;;;;;;75.80;39.75;;;7.90;99.90;;;;;;7377220;19;20437;-65
2023/02/22 04:49:02;;;;;;;71.43;40.58;;;7.80;99.90;;;;;;7375584;19;20057;-64
2023/02/22 04:51:32;;;;;;;76.75;41.95;;;7.80;99.90;;;;;;7375729;19;20023;-64
2023/02/22 04:54:05;;;;;;;79.70;42.80;;;7.80;99.90;;;;;;7375826;19;20027;-65
2023/02/22 04:56:34;;;;;;;75.72;41.70;;;7.80;99.90;;;;;;7374893;19;20026;-64
2023/02/22 04:59:04;;;;;;;83.50;44.28;;;7.90;99.90;;;;;;7373885;19;20022;-64
2023/02/22 05:01:33;;;;;;;93.78;46.60;;;7.80;99.90;;;;;;7374669;19;20022;-65
2023/02/22 05:04:05;;;;;;;89.60;45.38;;;7.90;99.90;;;;;;7379622;19;20061;-65
2023/02/22 05:06:31;;;;;;;86.57;45.60;;;7.90;99.90;;;;;;7374199;19;20026;-65
2023/02/22 05:08:57;;;;;;;88.38;45.60;;;7.80;99.90;;;;;;7374878;19;20026;-64
2023/02/22 05:11:29;;;;;;;88.25;45.97;;;7.80;99.90;;;;;;7378008;19;20031;-64
2023/02/22 05:13:55;;;;;;;80.88;43.92;;;7.80;99.90;;;;;;7375812;19;20022;-65
2023/02/22 05:16:22;;;;;;;88.70;45.00;;;7.80;99.90;;;;;;7373308;19;20029;-64
2023/02/22 05:18:50;;;;;;;92.25;46.17;;;7.80;99.90;;;;;;7377198;19;20082;-64
2023/02/22 05:21:17;;;;;;;91.00;45.95;;;7.80;99.90;;;;;;7371374;19;20014;-64
2023/02/22 05:23:45;;;;;;;95.28;43.75;;;7.80;99.90;;;;;;7380370;19;20018;-65
2023/02/22 05:26:11;;;;;;;86.45;43.38;;;7.80;99.90;;;;;;7375840;19;20014;-64
2023/02/22 05:28:38;;;;;;;96.82;45.92;;;7.80;99.90;;;;;;7375065;19;20048;-65
2023/02/22 05:31:06;;;;;;;97.95;46.90;;;7.70;99.90;;;;;;7373384;19;20505;-65
2023/02/22 05:33:32;;;;;;;96.35;43.72;;;7.70;99.90;;;;;;7374988;19;20022;-65
2023/02/22 05:35:59;;;;;;;100.60;46.60;;;7.70;99.90;;;;;;7372144;19;21067;-65
2023/02/22 05:38:29;;;;;;;101.78;45.75;;;7.70;99.90;;;;;;7374980;19;20022;-65
2023/02/22 05:40:57;;;;;;;104.13;46.30;;;7.70;99.90;;;;;;7373491;19;20041;-65
2023/02/22 05:43:24;;;;;;;106.68;48.20;;;7.70;99.90;;;;;;7372356;19;20014;-65
2023/02/22 05:45:51;;;;;;;103.30;50.78;;;7.60;99.90;;;;;;7375170;19;20029;-64
2023/02/22 05:48:17;;;;;;;99.13;46.70;;;7.60;99.90;;;;;;7368839;19;20127;-62
2023/02/22 05:50:44;;;;;;;103.05;51.67;;;7.70;99.90;;;;;;7372988;19;20029;-64
2023/02/22 05:53:12;;;;;;;102.25;48.20;;;7.70;99.90;;;;;;7368021;19;22463;-64
2023/02/22 05:55:39;;;;;;;98.35;48.53;;;7.70;99.90;;;;;;7373167;19;20053;-65
2023/02/22 05:58:08;;;;;;;101.40;49.42;;;7.60;99.90;;;;;;7369752;19;20540;-65
2023/02/22 06:00:34;;;;;;;106.40;49.30;;;7.60;99.90;;;;;;7368191;19;20022;-65
2023/02/22 06:03:04;;;;;;;105.05;48.42;;;7.60;99.90;;;;;;7369641;19;20037;-65
2023/02/22 06:05:31;;;;;;;106.07;52.72;;;7.60;99.90;;;;;;7369336;19;20041;-65
2023/02/22 06:07:58;;;;;;;103.15;50.08;;;7.60;99.90;;;;;;7366890;19;20053;-65
2023/02/22 06:10:26;;;;;;;101.70;47.67;;;7.60;99.90;;;;;;7367378;19;20018;-64
2023/02/22 06:12:59;;;;;;;104.85;49.30;;;7.60;99.90;;;;;;7369423;19;20089;-65
2023/02/22 06:15:26;;;;;;;107.57;52.05;;;7.50;99.90;;;;;;7366466;19;20497;-64
2023/02/22 06:17:54;;;;;;;105.10;47.95;;;7.50;99.90;;;;;;7369414;19;20789;-65
2023/02/22 06:20:23;;;;;;;103.45;50.03;;;7.50;99.90;;;;;;7366898;19;20015;-65
2023/02/22 06:22:54;;;;;;;102.03;49.10;;;7.50;99.90;;;;;;7367129;19;20026;-65
2023/02/22 06:25:31;;;;;;;116.18;51.78;;;7.50;99.90;;;;;;7368514;19;20627;-65
2023/02/22 06:27:59;;;;;;;104.03;47.10;;;7.50;99.90;;;;;;7368003;19;20030;-64
2023/02/22 06:30:27;;;;;;;110.80;50.55;;;7.40;99.90;;;;;;7366359;19;20031;-64
2023/02/22 06:32:54;;;;;;;106.82;51.25;;;7.50;99.90;;;;;;7365562;19;20031;-64
2023/02/22 06:35:21;;;;;;;105.63;49.88;;;7.40;99.90;;;;;;7364724;19;20026;-65
2023/02/22 06:37:47;;;;;;;113.35;50.17;;;7.40;99.90;;;;;;7367914;19;20125;-65
2023/02/22 06:40:16;;;;;;;114.82;52.08;;;7.40;99.90;;;;;;7364874;19;20014;-64
2023/02/22 06:42:42;;;;;;;112.82;52.88;;;7.40;99.90;;;;;;7365795;19;20018;-64
2023/02/22 06:45:09;;;;;;;116.65;53.33;;;7.40;99.90;;;;;;7366098;19;20025;-65
2023/02/22 06:47:40;;;;;;;114.60;51.88;;;7.30;99.90;;;;;;7368114;19;20658;-64
2023/02/22 06:50:17;;;;;;;106.25;50.58;;;7.30;99.90;;;;;;7364388;19;20022;-64
2023/02/22 06:52:43;;;;;;;110.75;53.05;;;7.30;99.90;;;;;;7363489;19;20019;-64
2023/02/22 06:55:09;;;;;;;109.10;50.22;;;7.30;99.90;;;;;;7369274;19;20026;-64
2023/02/22 06:57:36;;;;;;;116.40;52.35;;;7.30;99.90;;;;;;7368134;19;20055;-65
2023/02/22 07:00:03;;;;;;;109.40;51.03;;;7.30;99.90;;;;;;7370159;19;20019;-65
2023/02/22 07:02:42;;;;;;;110.10;50.42;;;7.30;99.90;;;;;;7369631;19;20021;-64
2023/02/22 07:05:11;;;;;;;111.13;50.78;;;7.30;99.90;;;;;;7367050;19;20026;-65
2023/02/22 07:07:38;;;;;;;109.95;51.25;;;7.30;99.90;;;;;;7371023;19;20023;-65
2023/02/22 07:10:21;;;;;;;109.95;49.47;;;7.30;99.90;;;;;;7369083;19;20062;-65
2023/02/22 07:12:53;;;;;;;109.57;51.63;;;7.30;99.90;;;;;;7368111;19;20045;-65
2023/02/22 07:15:22;;;;;;;112.45;53.20;;;7.30;99.90;;;;;;7367823;19;20023;-64
2023/02/22 07:17:49;;;;;;;112.88;51.90;;;7.30;99.90;;;;;;7369663;19;20022;-65
2023/02/22 07:20:17;;;;;;;112.68;55.13;;;7.30;99.90;;;;;;7368543;19;20386;-64
2023/02/22 07:22:51;;;;;;;105.28;51.80;;;7.30;99.90;;;;;;7369320;19;20084;-65
2023/02/22 07:25:20;;;;;;;110.88;50.10;;;7.30;99.90;;;;;;7371532;19;20023;-64
2023/02/22 07:27:56;;;;;;;110.53;52.35;;;7.30;99.90;;;;;;7372172;19;20371;-65
2023/02/22 07:30:24;;;;;;;112.95;52.13;;;7.30;99.90;;;;;;7369570;19;20025;-64
2023/02/22 07:32:52;;;;;;;116.68;51.47;;;7.30;99.90;;;;;;7369823;19;20018;-65
2023/02/22 07:35:30;;;;;;;110.80;51.83;;;7.40;99.90;;;;;;7368313;19;20021;-64
2023/02/22 07:37:56;;;;;;;110.68;50.38;;;7.30;99.90;;;;;;7371286;19;20086;-66
2023/02/22 07:40:24;;;;;;;104.78;49.20;;;7.40;99.90;;;;;;7373770;19;20026;-64
2023/02/22 07:42:56;;;;;;;111.60;50.65;;;7.40;99.90;;;;;;7374371;19;20078;-65
2023/02/22 07:45:24;;;;;;;107.30;49.08;;;7.40;99.90;;;;;;7375779;19;20010;-64
2023/02/22 07:47:51;;;;;;;116.10;52.92;;;7.40;99.90;;;;;;7377053;19;20022;-64
2023/02/22 07:50:22;;;;;;;109.53;51.97;;;7.40;99.90;;;;;;7374925;19;20022;-65
2023/02/22 07:52:51;;;;;;;105.25;48.22;;;7.40;99.90;;;;;;7377579;19;20022;-65
2023/02/22 07:55:25;;;;;;;108.18;49.80;;;7.40;99.90;;;;;;7377466;19;20019;-65
2023/02/22 07:57:55;;;;;;;107.78;48.53;;;7.50;99.90;;;;;;7376851;19;20015;-65
2023/02/22 08:00:38;;;;;;;109.28;49.72;;;7.50;99.90;;;;;;7376252;19;20238;-65
2023/02/22 08:03:10;;;;;;;114.80;52.35;;;7.50;99.90;;;;;;7371803;19;20018;-65
2023/02/22 08:05:38;;;;;;;111.03;50.03;;;7.60;99.90;;;;;;7375386;19;20018;-65
2023/02/22 08:08:21;;;;;;;105.78;49.40;;;7.60;99.90;;;;;;7377412;19;20011;-65
2023/02/22 08:11:05;;;;;;;113.30;49.25;;;7.70;99.90;;;;;;7374916;19;20018;-65
2023/02/22 08:13:31;;;;;;;116.53;49.50;;;7.70;99.90;;;;;;7377582;19;20057;-65
2023/02/22 08:15:58;;;;;;;108.18;50.50;;;7.80;99.90;;;;;;7380186;19;20035;-65
2023/02/22 08:18:25;;;;;;;99.45;45.53;;;7.90;99.90;;;;;;7377745;19;20466;-65
2023/02/22 08:20:52;;;;;;;111.68;50.28;;;7.80;99.90;;;;;;7374609;19;20077;-65
2023/02/22 08:23:21;;;;;;;119.05;52.72;;;7.90;99.90;;;;;;7371708;19;20327;-65
2023/02/22 08:25:48;;;;;;;109.18;51.72;;;7.90;99.90;;;;;;7378854;19;20081;-67
2023/02/22 08:28:19;;;;;;;107.85;53.65;;;8.00;99.90;;;;;;7376303;19;20390;-65
2023/02/22 08:30:45;;;;;;;106.65;51.72;;;8.10;99.90;;;;;;7376319;19;20025;-65
2023/02/22 08:33:15;;;;;;;102.32;46.72;;;8.10;99.90;;;;;;7374406;19;20023;-65
2023/02/22 08:35:42;;;;;;;107.82;49.45;;;8.10;99.90;;;;;;7375123;19;20378;-65
2023/02/22 08:38:37;;;;;;;111.82;51.28;;;8.10;99.90;;;;;;7377160;19;20017;-65
2023/02/22 08:41:04;;;;;;;107.50;48.30;;;8.10;99.90;;;;;;7375968;19;20022;-65
2023/02/22 08:43:30;;;;;;;112.20;51.33;;;8.20;99.90;;;;;;7370383;19;20394;-65
2023/02/22 08:45:56;;;;;;;106.80;52.25;;;8.20;99.90;;;;;;7377096;19;20022;-65
2023/02/22 08:48:23;;;;;;;107.70;50.53;;;8.10;99.90;;;;;;7374691;19;21016;-65
2023/02/22 08:50:49;;;;;;;106.95;49.60;;;8.10;99.90;;;;;;7370741;19;20015;-65
2023/02/22 08:53:16;;;;;;;105.85;51.38;;;8.10;99.90;;;;;;7370498;19;20073;-65
2023/02/22 08:55:43;;;;;;;108.90;51.60;;;8.10;99.90;;;;;;7377287;19;20513;-65
2023/02/22 08:58:10;;;;;;;113.15;51.05;;;8.10;99.90;;;;;;7374522;19;20074;-65
2023/02/22 09:00:40;;;;;;;123.20;53.28;;;8.10;99.90;;;;;;7376459;19;20029;-65
2023/02/22 09:03:11;;;;;;;116.00;52.47;;;8.10;99.90;;;;;;7373932;19;20085;-65
2023/02/22 09:05:39;;;;;;;115.40;52.60;;;8.20;99.90;;;;;;7376154;19;20019;-65
2023/02/22 09:08:06;;;;;;;116.93;52.53;;;8.10;99.90;;;;;;7373848;19;20010;-65
2023/02/22 09:10:34;;;;;;;117.78;54.92;;;8.00;99.90;;;;;;7374783;19;20017;-65
2023/02/22 09:13:05;;;;;;;117.47;49.70;;;8.10;99.90;;;;;;7377285;19;20474;-65
2023/02/22 09:15:35;;;;;;;112.63;48.92;;;8.00;99.90;;;;;;7373686;19;20014;-65
2023/02/22 09:18:02;;;;;;;125.50;51.13;;;8.00;99.90;;;;;;7376304;19;20589;-65
2023/02/22 09:20:28;;;;;;;107.78;47.75;;;8.00;99.90;;;;;;7373007;19;20126;-65
2023/02/22 09:23:05;;;;;;;121.70;53.72;;;8.00;99.90;;;;;;7372716;19;20022;-64
2023/02/22 09:25:34;;;;;;;116.20;51.38;;;8.10;99.90;;;;;;7371436;19;20045;-65
2023/02/22 09:28:06;;;;;;;115.68;49.00;;;8.10;99.90;;;;;;7374618;19;20029;-65
2023/02/22 09:30:34;;;;;;;111.45;49.13;;;8.20;99.90;;;;;;7372228;19;20086;-65
2023/02/22 09:33:08;;;;;;;114.93;50.15;;;8.20;99.90;;;;;;7372173;19;20025;-65
2023/02/22 09:35:35;;;;;;;124.75;50.90;;;8.20;99.90;;;;;;7373334;19;20022;-65
2023/02/22 09:38:05;;;;;;;119.32;52.72;;;8.20;99.90;;;;;;7372092;19;20592;-65
2023/02/22 09:40:39;;;;;;;122.55;52.83;;;8.20;99.90;;;;;;7372479;19;20037;-65
2023/02/22 09:43:16;;;;;;;124.55;54.75;;;8.20;99.90;;;;;;7371757;19;20356;-65
2023/02/22 09:46:17;;;;;;;125.82;55.10;;;8.30;99.90;;;;;;7373900;19;20082;-66
2023/02/22 09:49:14;;;;;;;117.00;52.33;;;8.30;99.90;;;;;;7373303;19;20068;-65
2023/02/22 09:51:58;;;;;;;117.63;52.90;;;8.30;99.90;;;;;;7372606;19;20026;-66
2023/02/22 09:54:35;;;;;;;132.40;54.97;;;8.30;99.90;;;;;;7371829;19;20031;-65
2023/02/22 09:57:05;;;;;;;131.80;56.15;;;8.30;99.90;;;;;;7376759;19;20887;-66
2023/02/22 10:00:06;;;;;;;129.07;53.58;;;8.40;99.90;;;;;;7372291;19;20018;-65
2023/02/22 10:03:08;;;;;;;123.65;52.60;;;8.40;99.90;;;;;;7372860;19;20017;-65
2023/02/22 10:05:38;;;;;;;115.18;49.90;;;8.40;99.90;;;;;;7376207;19;20025;-65
2023/02/22 10:08:11;;;;;;;128.48;55.22;;;8.30;99.90;;;;;;7373329;19;20018;-65
2023/02/22 10:10:40;;;;;;;126.63;51.50;;;8.30;99.90;;;;;;7372596;19;20085;-65
2023/02/22 10:14:00;;;;;;;116.35;51.67;;;8.40;99.90;;;;;;7374482;19;20007;-66
2023/02/22 10:16:40;;;;;;;123.38;51.25;;;8.40;99.90;;;;;;7369632;19;20014;-65
2023/02/22 10:19:21;;;;;;;128.35;53.28;;;8.30;99.90;;;;;;7373583;19;20019;-65
2023/02/22 10:22:13;;;;;;;130.75;54.33;;;8.30;99.90;;;;;;7371438;19;20022;-65
2023/02/22 10:24:53;;;;;;;123.78;50.22;;;8.30;99.90;;;;;;7367485;19;20840;-65
2023/02/22 10:27:34;;;;;;;127.63;53.08;;;8.30;99.90;;;;;;7370400;19;20026;-66
2023/02/22 10:30:01;;;;;;;;;;;8.30;99.90;;;;;;7374422;19;20029;-65
2023/02/22 10:32:34;;;;;;;130.48;53.92;;;8.30;99.90;;;;;;7369590;19;19922;-66
2023/02/22 10:35:04;;;;;;;140.02;53.33;;;8.40;99.90;;;;;;7372726;19;20399;-65
2023/02/22 10:37:33;;;;;;;135.70;55.72;;;8.30;99.90;;;;;;7373408;19;20162;-65
2023/02/22 10:40:17;;;;;;;131.95;53.00;;;8.30;99.90;;;;;;7373964;19;20109;-65
2023/02/22 10:42:43;;;;;;;145.52;55.65;;;8.40;99.90;;;;;;7370131;19;20034;-65
2023/02/22 10:45:20;;;;;;;135.23;53.35;;;8.40;99.90;;;;;;7369526;19;20014;-65
2023/02/22 10:47:48;;;;;;;145.65;53.13;;;8.40;99.90;;;;;;7371933;19;20074;-65
2023/02/22 10:50:14;;;;;;;141.70;52.15;;;8.50;99.90;;;;;;7367616;19;20035;-65
2023/02/22 10:52:41;;;;;;;128.32;48.50;;;8.50;99.90;;;;;;7370516;19;20679;-65
2023/02/22 10:55:16;;;;;;;138.60;51.20;;;8.60;99.90;;;;;;7368314;19;20089;-65
2023/02/22 10:57:48;;;;;;;134.40;52.33;;;8.50;99.90;;;;;;7369994;19;20014;-66
2023/02/22 11:00:28;;;;;;;130.20;50.40;;;8.40;99.90;;;;;;7368678;19;20025;-66
2023/02/22 11:03:00;;;;;;;133.30;50.65;;;8.50;99.90;;;;;;7372652;19;20712;-65
2023/02/22 11:05:36;;;;;;;131.75;50.53;;;8.40;99.90;;;;;;7370919;19;20034;-65
2023/02/22 11:08:20;;;;;;;116.47;42.05;;;8.30;99.90;;;;;;7372125;19;20010;-65
2023/02/22 11:10:49;;;;;;;126.03;46.00;;;8.40;99.90;;;;;;7376365;19;20035;-65
2023/02/22 11:13:25;;;;;;;129.02;48.78;;;8.30;99.90;;;;;;7368687;19;20485;-65
2023/02/22 11:15:59;;;;;;;124.93;48.53;;;8.40;99.90;;;;;;7371500;19;20765;-66
2023/02/22 11:18:33;;;;;;;126.40;47.00;;;8.40;99.90;;;;;;7371269;19;20883;-65
2023/02/22 11:21:21;;;;;;;108.57;44.75;;;8.50;99.90;;;;;;7372384;19;20025;-65
2023/02/22 11:23:49;;;;;;;105.68;44.90;;;8.60;99.90;;;;;;7369880;19;20006;-65
2023/02/22 11:26:19;;;;;;;102.75;42.67;;;8.70;99.90;;;;;;7372016;19;20048;-65
2023/02/22 11:28:54;;;;;;;91.72;41.53;;;8.70;99.90;;;;;;7364294;19;20022;-65
2023/02/22 11:31:26;;;;;;;97.43;41.17;;;8.80;99.90;;;;;;7363924;19;20014;-65
2023/02/22 11:33:56;;;;;;;101.57;41.88;;;8.80;99.90;;;;;;7365945;19;20018;-65
2023/02/22 11:36:39;;;;;;;95.10;42.90;;;8.90;99.90;;;;;;7370170;19;20033;-65
2023/02/22 11:39:21;;;;;;;97.57;44.40;;;8.90;99.90;;;;;;7371013;19;20642;-65
2023/02/22 11:41:48;;;;;;;96.18;40.55;;;9.00;99.90;;;;;;7370438;19;20081;-66
2023/02/22 11:44:24;;;;;;;99.53;42.17;;;9.00;99.90;;;;;;7368873;19;20039;-65
2023/02/22 11:46:55;;;;;;;93.20;40.33;;;9.00;99.90;;;;;;7368812;19;20011;-65
2023/02/22 11:49:35;;;;;;;86.70;39.85;;;9.10;99.90;;;;;;7369024;19;20025;-65
2023/02/22 11:52:22;;;;;;;91.32;40.00;;;9.00;99.90;;;;;;7371717;19;20029;-65
2023/02/22 11:54:58;;;;;;;90.82;41.17;;;9.10;99.90;;;;;;7368887;19;20628;-65
2023/02/22 11:57:35;;;;;;;76.72;36.85;;;9.10;99.90;;;;;;7368078;19;20761;-66
2023/02/22 12:00:32;;;;;;;80.72;39.00;;;9.20;99.90;;;;;;7364267;19;20029;-66
2023/02/22 12:03:34;;;;;;;80.32;38.55;;;9.20;99.90;;;;;;7367601;19;20014;-65
2023/02/22 12:06:45;;;;;;;91.60;40.63;;;9.20;99.90;;;;;;7361707;19;20108;-65
2023/02/22 12:09:24;;;;;;;89.60;40.22;;;9.40;99.90;;;;;;7365174;19;20580;-65
2023/02/22 12:12:15;;;;;;;89.18;42.00;;;9.50;99.90;;;;;;7367790;19;20022;-66
2023/02/22 12:14:54;;;;;;;76.72;37.17;;;9.50;99.90;;;;;;7365031;19;20499;-66
2023/02/22 12:17:39;;;;;;;80.55;39.13;;;9.60;99.90;;;;;;7367398;19;20657;-66
2023/02/22 12:20:20;;;;;;;78.82;37.55;;;9.60;99.90;;;;;;7365524;19;20495;-65
2023/02/22 12:23:05;;;;;;;78.88;39.60;;;9.60;99.90;;;;;;7368970;19;20450;-65
2023/02/22 12:25:40;;;;;;;76.85;38.10;;;9.50;99.90;;;;;;7368376;19;20010;-65
2023/02/22 12:28:21;;;;;;;74.68;36.72;;;9.60;99.90;;;;;;7377611;19;20083;-65
2023/02/22 12:30:59;;;;;;;74.63;38.30;;;9.60;99.90;;;;;;7376398;19;20021;-65
2023/02/22 12:33:31;;;;;;;76.45;36.63;;;9.60;99.90;;;;;;7372782;19;20495;-66
2023/02/22 12:35:59;;;;;;;69.68;36.20;;;9.60;99.90;;;;;;7376009;19;20052;-65
2023/02/22 12:38:47;;;;;;;71.38;39.28;;;9.70;99.90;;;;;;7376350;19;20077;-65
2023/02/22 12:41:33;;;;;;;67.38;35.35;;;9.70;99.90;;;;;;7374991;19;20134;-65
2023/02/22 12:44:25;;;;;;;74.78;37.08;;;9.90;99.90;;;;;;7369168;19;20014;-65
2023/02/22 12:46:55;;;;;;;73.82;36.95;;;9.90;99.90;;;;;;7373892;19;20015;-65
2023/02/22 12:49:39;;;;;;;67.95;35.50;;;10.00;99.90;;;;;;7373396;19;20620;-65
2023/02/22 12:52:23;;;;;;;66.13;35.33;;;10.00;99.90;;;;;;7373555;19;20015;-65
2023/02/22 12:54:58;;;;;;;67.88;34.75;;;10.00;99.90;;;;;;7376427;19;20027;-65
2023/02/22 12:57:58;;;;;;;66.40;35.75;;;10.10;99.90;;;;;;7375124;19;20011;-65
2023/02/22 13:00:49;;;;;;;63.78;35.35;;;10.10;99.90;;;;;;7368638;19;20534;-65
2023/02/22 13:03:25;;;;;;;60.13;33.28;;;10.20;99.90;;;;;;7364280;19;20018;-65